Time;durP1;ratioP1;P1;durP2;ratioP2;P2;SDS_P1;SDS_P2;PMS_P1;PMS_P2;Temp;Humidity;BMP_temperature;BMP_pressure;BME280_temperature;BME280_humidity;BME280_pressure;Samples;Min_cycle;Max_cycle;Signal;HPM_P1;HPM_P2
2022/06/13 00:00:28;;;;;;;8.77;5.65;;;;;;;-144.65;100.00;64500.88;5030775;28;20096;-77
2022/06/13 00:02:53;;;;;;;7.93;5.72;;;;;;;-144.65;100.00;64500.88;5020328;28;20026;-79
2022/06/13 00:05:19;;;;;;;9.45;5.70;;;;;;;-144.65;100.00;64500.88;5032053;28;20079;-80
2022/06/13 00:07:45;;;;;;;7.78;5.70;;;;;;;-144.65;100.00;64500.88;5030361;28;20033;-78
2022/06/13 00:10:12;;;;;;;7.03;5.57;;;;;;;-144.65;100.00;64500.88;5030431;28;20029;-79
2022/06/13 00:12:39;;;;;;;8.25;5.93;;;;;;;-144.65;100.00;64500.88;5012100;28;20026;-79
2022/06/13 00:15:05;;;;;;;8.80;5.45;;;;;;;-144.65;100.00;64500.88;5030187;28;20041;-80
2022/06/13 00:17:31;;;;;;;9.68;5.47;;;;;;;-144.65;100.00;64500.88;5011785;28;20029;-81
2022/06/13 00:19:56;;;;;;;7.55;5.63;;;;;;;-144.65;100.00;64500.88;5030690;28;20033;-81
2022/06/13 00:22:21;;;;;;;5.80;4.88;;;;;;;-144.65;100.00;64500.88;4996090;28;20052;-80
2022/06/13 00:24:47;;;;;;;7.53;5.43;;;;;;;-144.65;100.00;64500.88;5011211;28;20033;-81
2022/06/13 00:27:12;;;;;;;7.25;5.50;;;;;;;-144.65;100.00;64500.88;5030247;28;20021;-81
2022/06/13 00:29:39;;;;;;;6.90;5.72;;;;;;;-144.65;100.00;64500.88;5038043;28;20064;-81
2022/06/13 00:32:04;;;;;;;7.00;5.38;;;;;;;-144.65;100.00;64500.88;5040000;28;20034;-79
2022/06/13 00:34:30;;;;;;;6.93;5.63;;;;;;;-144.65;100.00;64500.88;5057754;28;20028;-79
2022/06/13 00:36:55;;;;;;;6.05;5.25;;;;;;;-144.65;100.00;64500.88;5045598;28;20108;-81
2022/06/13 00:39:21;;;;;;;7.50;5.90;;;;;;;-144.65;100.00;64500.88;5047235;28;20022;-81
2022/06/13 00:41:47;;;;;;;10.80;5.40;;;;;;;-144.65;100.00;64500.88;5055722;28;20108;-79
2022/06/13 00:44:21;;;;;;;8.80;6.03;;;;;;;-144.65;100.00;64500.88;5053836;28;20029;-81
2022/06/13 00:46:47;;;;;;;8.25;5.75;;;;;;;-144.65;100.00;64500.88;5037040;28;20052;-80
2022/06/13 00:49:23;;;;;;;9.73;5.78;;;;;;;-144.65;100.00;64500.88;5034474;28;20017;-77
2022/06/13 00:51:58;;;;;;;6.03;5.43;;;;;;;-144.65;100.00;64500.88;5032146;28;20033;-80
2022/06/13 00:54:24;;;;;;;7.70;5.25;;;;;;;-144.65;100.00;64500.88;5033391;28;20021;-80
2022/06/13 00:56:50;;;;;;;6.68;5.40;;;;;;;-144.65;100.00;64500.88;5034013;28;20025;-79
2022/06/13 00:59:22;;;;;;;6.68;5.30;;;;;;;-144.65;100.00;64500.88;5033599;28;20036;-80
2022/06/13 01:01:48;;;;;;;9.52;6.30;;;;;;;-144.65;100.00;64500.88;5033647;28;20041;-78
2022/06/13 01:04:14;;;;;;;7.63;5.47;;;;;;;-144.65;100.00;64500.88;5032909;28;20512;-78
2022/06/13 01:06:43;;;;;;;7.20;5.05;;;;;;;-144.65;100.00;64500.88;5033422;28;20032;-77
2022/06/13 01:09:11;;;;;;;5.63;4.90;;;;;;;-144.65;100.00;64500.88;5042827;28;20486;-78
2022/06/13 01:11:42;;;;;;;5.90;5.20;;;;;;;-144.65;100.00;64500.88;5032776;28;20031;-79
2022/06/13 01:14:13;;;;;;;8.70;5.85;;;;;;;-144.65;100.00;64500.88;5041454;28;20545;-78
2022/06/13 01:16:56;;;;;;;11.82;5.50;;;;;;;-144.65;100.00;64500.88;5053165;28;20394;-78
2022/06/13 01:19:35;;;;;;;7.07;5.68;;;;;;;-144.65;100.00;64500.88;5052404;28;20033;-79
2022/06/13 01:22:15;;;;;;;7.72;5.43;;;;;;;-144.65;100.00;64500.88;5052595;28;20140;-77
2022/06/13 01:25:21;;;;;;;7.68;4.90;;;;;;;-144.65;100.00;64500.88;5052474;28;20151;-77
2022/06/13 01:28:24;;;;;;;12.43;5.82;;;;;;;-144.65;100.00;64500.88;5032952;28;20033;-77
2022/06/13 01:30:52;;;;;;;14.82;6.30;;;;;;;-144.65;100.00;64500.88;5032310;28;20037;-78
2022/06/13 01:33:55;;;;;;;7.45;6.05;;;;;;;-144.65;100.00;64500.88;5032365;28;20382;-77
2022/06/13 01:36:31;;;;;;;6.80;5.70;;;;;;;-144.65;100.00;64500.88;5032469;28;20032;-79
2022/06/13 01:39:26;;;;;;;7.10;6.18;;;;;;;-144.65;100.00;64500.88;5032335;28;20461;-77
2022/06/13 01:42:11;;;;;;;7.15;5.78;;;;;;;-144.65;100.00;64500.88;5031021;28;20033;-78
2022/06/13 01:45:21;;;;;;;7.40;6.00;;;;;;;-144.65;100.00;64500.88;5032443;28;20035;-79
2022/06/13 01:48:14;;;;;;;8.18;5.80;;;;;;;-144.65;100.00;64500.88;5031823;28;20030;-77
2022/06/13 01:50:52;;;;;;;7.97;5.90;;;;;;;-144.65;100.00;64500.88;5032152;28;20024;-77
2022/06/13 01:53:20;;;;;;;11.73;6.07;;;;;;;-144.65;100.00;64500.88;5032336;28;20056;-78
2022/06/13 01:56:01;;;;;;;7.38;6.22;;;;;;;-144.65;100.00;64500.88;5034179;28;20033;-78
2022/06/13 01:58:32;;;;;;;6.45;5.38;;;;;;;-144.65;100.00;64500.88;5032286;28;20033;-79
2022/06/13 02:01:41;;;;;;;9.45;6.00;;;;;;;-144.65;100.00;64500.88;5031945;28;20387;-78
2022/06/13 02:04:19;;;;;;;7.47;5.95;;;;;;;-144.65;100.00;64500.88;5031743;28;20032;-78
2022/06/13 02:06:51;;;;;;;8.05;5.75;;;;;;;-144.65;100.00;64500.88;5035091;28;20021;-78
2022/06/13 02:09:22;;;;;;;9.63;6.47;;;;;;;-144.65;100.00;64500.88;5050246;28;20025;-78
2022/06/13 02:11:50;;;;;;;8.40;5.93;;;;;;;-144.65;100.00;64500.88;5028176;28;20714;-77
2022/06/13 02:14:19;;;;;;;9.60;6.20;;;;;;;-144.65;100.00;64500.88;5031871;28;20029;-78
2022/06/13 02:17:26;;;;;;;7.22;5.93;;;;;;;-144.65;100.00;64500.88;5043280;28;20067;-78
2022/06/13 02:20:15;;;;;;;10.70;6.28;;;;;;;-144.65;100.00;64500.88;5048424;28;20040;-79
2022/06/13 02:22:51;;;;;;;7.22;5.75;;;;;;;-144.65;100.00;64500.88;5033010;28;20387;-79
2022/06/13 02:25:31;;;;;;;8.43;5.82;;;;;;;-144.65;100.00;64500.88;5051564;28;20393;-79
2022/06/13 02:28:11;;;;;;;11.35;6.03;;;;;;;-144.65;100.00;64500.88;5052026;28;20064;-77
2022/06/13 02:30:43;;;;;;;9.60;6.53;;;;;;;-144.65;100.00;64500.88;5033763;28;20032;-77
2022/06/13 02:33:18;;;;;;;8.43;5.93;;;;;;;-144.65;100.00;64500.88;5051552;28;20029;-79
2022/06/13 02:35:56;;;;;;;8.90;6.30;;;;;;;-144.65;100.00;64500.88;5051218;28;20037;-79
2022/06/13 02:38:36;;;;;;;7.55;6.32;;;;;;;-144.65;100.00;64500.88;5033438;28;20037;-80
2022/06/13 02:41:10;;;;;;;7.28;6.32;;;;;;;-144.65;100.00;64500.88;5051311;28;20563;-77
2022/06/13 02:43:52;;;;;;;7.18;5.82;;;;;;;-144.65;100.00;64500.88;5050866;28;20033;-79
2022/06/13 02:46:24;;;;;;;7.60;6.13;;;;;;;-144.65;100.00;64500.88;5032810;28;20661;-78
2022/06/13 02:49:00;;;;;;;7.40;5.65;;;;;;;-144.65;100.00;64500.88;5051007;28;20466;-77
2022/06/13 02:51:59;;;;;;;8.60;6.80;;;;;;;-144.65;100.00;64500.88;5051194;28;20100;-77
2022/06/13 02:54:45;;;;;;;21.48;12.65;;;;;;;-144.65;100.00;64500.88;5050966;28;20036;-76
2022/06/13 02:57:31;;;;;;;;;;;;;;;-144.65;100.00;64500.88;5051327;28;20044;-78
2022/06/13 02:59:57;;;;;;;8.73;6.30;;;;;;;-144.65;100.00;64500.88;5033202;28;19935;-78
2022/06/13 03:02:32;;;;;;;7.20;5.85;;;;;;;-144.65;100.00;64500.88;5033172;28;20379;-78
2022/06/13 03:05:00;;;;;;;;;;;;;;;-144.65;100.00;64500.88;5051218;28;20032;-77
2022/06/13 03:07:36;;;;;;;7.65;6.10;;;;;;;-144.65;100.00;64500.88;5051043;28;19984;-78
2022/06/13 03:10:15;;;;;;;9.70;6.28;;;;;;;-144.65;100.00;64500.88;5050980;28;20032;-78
2022/06/13 03:13:02;;;;;;;9.02;6.90;;;;;;;-144.65;100.00;64500.88;5032927;28;20025;-77
2022/06/13 03:15:44;;;;;;;13.75;6.80;;;;;;;-144.65;100.00;64500.88;5050420;28;20107;-78
2022/06/13 03:18:23;;;;;;;8.75;6.05;;;;;;;-144.65;100.00;64500.88;5032614;28;20028;-77
2022/06/13 03:21:13;;;;;;;9.23;5.90;;;;;;;-144.65;100.00;64500.88;5050509;28;20095;-77
2022/06/13 03:23:47;;;;;;;9.18;5.65;;;;;;;-144.65;100.00;64500.88;5050461;28;20029;-79
2022/06/13 03:26:25;;;;;;;9.00;6.45;;;;;;;-144.65;100.00;64500.88;5050742;28;20083;-77
2022/06/13 03:28:59;;;;;;;8.70;5.82;;;;;;;-144.65;100.00;64500.88;5050796;28;20032;-79
2022/06/13 03:31:32;;;;;;;10.15;6.22;;;;;;;-144.65;100.00;64500.88;5050426;28;20026;-78
2022/06/13 03:34:05;;;;;;;8.70;5.65;;;;;;;-144.65;100.00;64500.88;5032363;28;20115;-79
2022/06/13 03:36:45;;;;;;;8.40;5.95;;;;;;;-144.65;100.00;64500.88;5048805;28;20052;-78
2022/06/13 03:39:22;;;;;;;7.80;5.32;;;;;;;-144.65;100.00;64500.88;5032378;28;20047;-78
2022/06/13 03:42:02;;;;;;;7.70;5.47;;;;;;;-144.65;100.00;64500.88;5050341;28;20025;-77
2022/06/13 03:44:33;;;;;;;8.02;5.60;;;;;;;-144.65;100.00;64500.88;5032104;28;20041;-78
2022/06/13 03:47:34;;;;;;;7.75;5.25;;;;;;;-144.65;100.00;64500.88;5050171;28;20099;-77
2022/06/13 03:50:24;;;;;;;6.43;5.03;;;;;;;-144.65;100.00;64500.88;5049995;28;20029;-77
2022/06/13 03:53:00;;;;;;;5.93;4.85;;;;;;;-144.65;100.00;64500.88;5032094;28;20021;-79
2022/06/13 03:55:34;;;;;;;7.85;4.90;;;;;;;-144.65;100.00;64500.88;5031686;28;20576;-79
2022/06/13 03:58:19;;;;;;;6.65;4.88;;;;;;;-144.65;100.00;64500.88;5050461;28;20025;-78
2022/06/13 04:00:52;;;;;;;6.20;5.10;;;;;;;-144.65;100.00;64500.88;5050001;28;20086;-79
2022/06/13 04:03:19;;;;;;;7.30;5.55;;;;;;;-144.65;100.00;64500.88;5031946;28;20029;-77
2022/06/13 04:06:02;;;;;;;9.80;5.78;;;;;;;-144.65;100.00;64500.88;5031884;28;20391;-77
2022/06/13 04:08:30;;;;;;;12.13;5.72;;;;;;;-144.65;100.00;64500.88;5031780;28;20021;-78
2022/06/13 04:10:59;;;;;;;9.63;6.22;;;;;;;-144.65;100.00;64500.88;5049583;28;20029;-77
2022/06/13 04:13:56;;;;;;;6.60;5.53;;;;;;;-144.65;100.00;64500.88;5031778;28;20036;-80
2022/06/13 04:16:46;;;;;;;7.40;5.80;;;;;;;-144.65;100.00;64500.88;5026139;28;20048;-77
2022/06/13 04:19:25;;;;;;;8.80;5.28;;;;;;;-144.65;100.00;64500.88;5048518;28;20040;-79
2022/06/13 04:21:51;;;;;;;7.75;5.60;;;;;;;-144.65;100.00;64500.88;5049973;28;20052;-76
2022/06/13 04:24:19;;;;;;;5.97;5.25;;;;;;;-144.65;100.00;64500.88;5049720;28;20037;-77
2022/06/13 04:27:01;;;;;;;7.88;5.18;;;;;;;-144.65;100.00;64500.88;5031607;28;20037;-78
2022/06/13 04:29:39;;;;;;;7.57;5.32;;;;;;;-144.65;100.00;64500.88;5050090;28;20029;-79
2022/06/13 04:32:12;;;;;;;8.00;5.57;;;;;;;-144.65;100.00;64500.88;5032653;28;20029;-80
2022/06/13 04:34:46;;;;;;;7.72;4.97;;;;;;;-144.65;100.00;64500.88;5029649;28;20081;-78
2022/06/13 04:37:12;;;;;;;6.85;5.05;;;;;;;-144.65;100.00;64500.88;5012087;28;20064;-77
2022/06/13 04:39:40;;;;;;;7.10;5.53;;;;;;;-144.65;100.00;64500.88;5012042;28;20025;-79
2022/06/13 04:42:08;;;;;;;8.95;6.13;;;;;;;-144.65;100.00;64500.88;5029678;28;20083;-77
2022/06/13 04:44:35;;;;;;;12.20;6.32;;;;;;;-144.65;100.00;64500.88;5029413;28;20087;-76
2022/06/13 04:47:03;;;;;;;7.65;5.55;;;;;;;-144.65;100.00;64500.88;5029643;28;20033;-77
2022/06/13 04:49:34;;;;;;;8.05;5.82;;;;;;;-144.65;100.00;64500.88;5029439;28;20083;-76
2022/06/13 04:52:05;;;;;;;13.30;6.30;;;;;;;-144.65;100.00;64500.88;5041796;28;20039;-79
2022/06/13 04:54:36;;;;;;;9.35;6.50;;;;;;;-144.65;100.00;64500.88;5031561;28;20032;-80
2022/06/13 04:57:02;;;;;;;10.05;7.35;;;;;;;-144.65;100.00;64500.88;5049671;28;20048;-78
2022/06/13 04:59:29;;;;;;;15.05;7.93;;;;;;;-144.65;100.00;64500.88;5030772;28;20009;-78
2022/06/13 05:01:56;;;;;;;13.35;6.93;;;;;;;-144.65;100.00;64500.88;5029629;28;20033;-77
2022/06/13 05:04:29;;;;;;;11.00;7.35;;;;;;;-144.65;100.00;64500.88;5028980;28;20026;-79
2022/06/13 05:06:59;;;;;;;8.98;6.82;;;;;;;-144.65;100.00;64500.88;5036930;28;20048;-79
2022/06/13 05:09:41;;;;;;;11.40;7.00;;;;;;;-144.65;100.00;64500.88;5046079;28;20505;-77
2022/06/13 05:12:27;;;;;;;11.30;6.95;;;;;;;-144.65;100.00;64500.88;5047049;28;20024;-80
2022/06/13 05:14:56;;;;;;;8.95;7.13;;;;;;;-144.65;100.00;64500.88;5031795;28;20033;-79
2022/06/13 05:17:39;;;;;;;11.88;7.45;;;;;;;-144.65;100.00;64500.88;5037686;28;20021;-82
2022/06/13 05:20:22;;;;;;;10.80;7.80;;;;;;;-144.65;100.00;64500.88;5049280;28;20127;-78
2022/06/13 05:23:00;;;;;;;13.32;7.63;;;;;;;-144.65;100.00;64500.88;5046731;28;20422;-80
2022/06/13 05:25:36;;;;;;;10.77;7.22;;;;;;;-144.65;100.00;64500.88;5043379;28;20037;-79
2022/06/13 05:28:01;;;;;;;;;;;;;;;-144.65;100.00;64500.88;5053802;28;20818;-80
2022/06/13 05:30:27;;;;;;;10.13;7.40;;;;;;;-144.65;100.00;64500.88;5036934;28;19913;-73
2022/06/13 05:32:54;;;;;;;11.18;8.07;;;;;;;-144.65;100.00;64500.88;5033523;28;20033;-79
2022/06/13 05:35:26;;;;;;;8.60;7.30;;;;;;;-144.65;100.00;64500.88;5016578;28;20040;-75
2022/06/13 05:37:54;;;;;;;13.13;7.90;;;;;;;-144.65;100.00;64500.88;5032848;28;20036;-75
2022/06/13 05:40:22;;;;;;;11.88;8.30;;;;;;;-144.65;100.00;64500.88;5032898;28;20025;-76
2022/06/13 05:42:48;;;;;;;18.05;8.23;;;;;;;-144.65;100.00;64500.88;5038915;28;20422;-76
2022/06/13 05:45:15;;;;;;;10.23;7.32;;;;;;;-144.65;100.00;64500.88;5015613;28;20561;-78
2022/06/13 05:47:42;;;;;;;16.73;9.00;;;;;;;-144.65;100.00;64500.88;5015736;28;20472;-77
2022/06/13 05:50:37;;;;;;;9.80;6.90;;;;;;;-144.65;100.00;64500.88;5034041;28;20387;-75
2022/06/13 05:53:02;;;;;;;13.15;8.23;;;;;;;-144.65;100.00;64500.88;5026898;28;20504;-81
2022/06/13 05:55:28;;;;;;;8.75;7.57;;;;;;;-144.65;100.00;64500.88;5033022;28;20029;-78
2022/06/13 05:57:54;;;;;;;9.95;7.47;;;;;;;-144.65;100.00;64500.88;5034060;28;20036;-83
2022/06/13 06:00:24;;;;;;;10.63;7.18;;;;;;;-144.65;100.00;64500.88;5036137;28;20025;-78
2022/06/13 06:02:49;;;;;;;10.07;7.32;;;;;;;-144.65;100.00;64500.88;5053455;28;20864;-79
2022/06/13 06:05:15;;;;;;;13.27;7.25;;;;;;;-144.65;100.00;64500.88;5054417;28;20033;-81
2022/06/13 06:07:40;;;;;;;10.63;7.28;;;;;;;-144.65;100.00;64500.88;5035718;28;20620;-79
2022/06/13 06:10:07;;;;;;;10.30;7.88;;;;;;;-144.65;100.00;64500.88;5052799;28;20533;-75
2022/06/13 06:12:32;;;;;;;10.88;7.18;;;;;;;-144.65;100.00;64500.88;5052844;28;20032;-79
2022/06/13 06:14:58;;;;;;;10.73;7.25;;;;;;;-144.65;100.00;64500.88;5034533;28;20532;-77
2022/06/13 06:17:23;;;;;;;12.25;8.00;;;;;;;-144.65;100.00;64500.88;5014449;28;20037;-80
2022/06/13 06:19:49;;;;;;;8.30;6.63;;;;;;;-144.65;100.00;64500.88;5014345;28;20026;-80
2022/06/13 06:22:14;;;;;;;13.75;7.20;;;;;;;-144.65;100.00;64500.88;5032523;28;20461;-79
2022/06/13 06:24:40;;;;;;;9.60;7.22;;;;;;;-144.65;100.00;64500.88;5032527;28;20426;-76
2022/06/13 06:27:08;;;;;;;11.88;7.82;;;;;;;-144.65;100.00;64500.88;5032935;28;20057;-78
2022/06/13 06:29:33;;;;;;;12.40;8.05;;;;;;;-144.65;100.00;64500.88;5034343;28;20457;-80
2022/06/13 06:31:59;;;;;;;13.20;8.10;;;;;;;-144.65;100.00;64500.88;5031770;28;20021;-81
2022/06/13 06:34:24;;;;;;;11.60;7.30;;;;;;;-144.65;100.00;64500.88;5030933;28;20052;-76
2022/06/13 06:36:49;;;;;;;10.23;7.63;;;;;;;-144.65;100.00;64500.88;5042887;28;20076;-77
2022/06/13 06:39:15;;;;;;;14.02;7.85;;;;;;;-144.65;100.00;64500.88;5035214;28;20136;-79
2022/06/13 06:41:42;;;;;;;12.13;7.45;;;;;;;-144.65;100.00;64500.88;5031117;28;20083;-78
2022/06/13 06:44:07;;;;;;;9.23;6.88;;;;;;;-144.65;100.00;64500.88;5044120;28;20037;-77
2022/06/13 06:46:33;;;;;;;11.43;6.82;;;;;;;-144.65;100.00;64500.88;5049891;28;20045;-79
2022/06/13 06:48:58;;;;;;;16.73;7.30;;;;;;;-144.65;100.00;64500.88;5027605;28;20363;-78
2022/06/13 06:51:29;;;;;;;8.48;6.97;;;;;;;-144.65;100.00;64500.88;5041313;28;20104;-79
2022/06/13 07:02:07;;;;;;;16.05;7.40;;;;;;;-144.65;100.00;64500.88;5045648;28;20028;-78
2022/06/13 07:04:32;;;;;;;8.02;6.80;;;;;;;-144.65;100.00;64500.88;5035782;28;20029;-78
2022/06/13 07:06:58;;;;;;;12.48;7.53;;;;;;;-144.65;100.00;64500.88;5025468;28;20025;-70
2022/06/13 07:09:23;;;;;;;8.95;6.55;;;;;;;-144.65;100.00;64500.88;5050469;28;20429;-78
2022/06/13 07:11:54;;;;;;;11.23;6.53;;;;;;;-144.65;100.00;64500.88;5040851;28;20406;-78
2022/06/13 07:14:29;;;;;;;8.90;5.63;;;;;;;-144.65;100.00;64500.88;5041096;28;20020;-77
2022/06/13 07:16:56;;;;;;;7.00;5.30;;;;;;;-144.65;100.00;64500.88;5021590;28;20112;-78
2022/06/13 07:19:22;;;;;;;9.98;5.85;;;;;;;-144.65;100.00;64500.88;5046813;28;20041;-77
2022/06/13 07:21:47;;;;;;;7.05;5.32;;;;;;;-144.65;100.00;64500.88;5023063;28;20052;-80
2022/06/13 07:24:14;;;;;;;14.27;6.55;;;;;;;-144.65;100.00;64500.88;5022312;28;20026;-76
2022/06/13 07:26:40;;;;;;;9.75;6.25;;;;;;;-144.65;100.00;64500.88;5022220;28;20713;-79
2022/06/13 07:29:05;;;;;;;8.30;5.57;;;;;;;-144.65;100.00;64500.88;5041556;28;20029;-78
2022/06/13 07:31:33;;;;;;;8.82;5.63;;;;;;;-144.65;100.00;64500.88;5038345;28;20402;-76
2022/06/13 07:33:59;;;;;;;8.60;5.00;;;;;;;-144.65;100.00;64500.88;5038331;28;20036;-77
2022/06/13 07:36:24;;;;;;;12.18;5.65;;;;;;;-144.65;100.00;64500.88;5023044;28;20025;-74
2022/06/13 07:38:49;;;;;;;8.68;5.43;;;;;;;-144.65;100.00;64500.88;5020642;28;20017;-76
2022/06/13 07:41:19;;;;;;;6.65;4.82;;;;;;;-144.65;100.00;64500.88;5022701;28;20020;-74
2022/06/13 07:43:45;;;;;;;6.47;4.88;;;;;;;-144.65;100.00;64500.88;5039925;28;20033;-76
2022/06/13 07:46:11;;;;;;;5.22;4.35;;;;;;;-144.65;100.00;64500.88;5051275;28;20478;-75
2022/06/13 07:48:37;;;;;;;4.88;4.18;;;;;;;-144.65;100.00;64500.88;5050983;28;20029;-76
2022/06/13 07:51:05;;;;;;;7.15;4.50;;;;;;;-144.65;100.00;64500.88;5032934;28;20021;-74
2022/06/13 07:53:32;;;;;;;5.22;4.50;;;;;;;-144.65;100.00;64500.88;5050940;28;20028;-74
2022/06/13 07:55:57;;;;;;;5.03;3.92;;;;;;;-144.65;100.00;64500.88;5051139;28;20100;-75
2022/06/13 07:58:31;;;;;;;5.05;4.03;;;;;;;-144.65;100.00;64500.88;5044496;28;20852;-74
2022/06/13 08:00:57;;;;;;;8.32;4.10;;;;;;;-144.65;100.00;64500.88;5047830;28;20056;-75
2022/06/13 08:03:25;;;;;;;5.47;3.85;;;;;;;-144.65;100.00;64500.88;5046002;28;20067;-77
2022/06/13 08:05:52;;;;;;;4.60;3.92;;;;;;;-144.65;100.00;64500.88;5049428;28;20083;-75
2022/06/13 08:08:18;;;;;;;5.88;3.88;;;;;;;-144.65;100.00;64500.88;5050805;28;20119;-75
2022/06/13 08:10:44;;;;;;;4.53;3.92;;;;;;;-144.65;100.00;64500.88;5036688;28;20032;-75
2022/06/13 08:13:16;;;;;;;10.00;4.93;;;;;;;-144.65;100.00;64500.88;5050467;28;20080;-73
2022/06/13 08:15:42;;;;;;;7.63;4.47;;;;;;;-144.65;100.00;64500.88;5049199;28;20071;-79
2022/06/13 08:18:09;;;;;;;7.13;4.50;;;;;;;-144.65;100.00;64500.88;5050638;28;20419;-74
2022/06/13 08:20:35;;;;;;;6.25;4.07;;;;;;;-144.65;100.00;64500.88;5049263;28;20037;-75
2022/06/13 08:23:02;;;;;;;5.70;4.07;;;;;;;-144.65;100.00;64500.88;5050483;28;20782;-75
2022/06/13 08:25:31;;;;;;;7.97;5.13;;;;;;;-144.65;100.00;64500.88;5050348;28;20033;-77
2022/06/13 08:27:58;;;;;;;6.10;5.30;;;;;;;-144.65;100.00;64500.88;5052195;28;20025;-75
2022/06/13 08:30:26;;;;;;;10.55;4.85;;;;;;;-144.65;100.00;64500.88;5034144;28;20036;-74
2022/06/13 08:32:51;;;;;;;7.95;4.88;;;;;;;-144.65;100.00;64500.88;5040229;28;20087;-76
2022/06/13 08:35:17;;;;;;;9.13;5.50;;;;;;;-144.65;100.00;64500.88;5032356;28;20064;-74
2022/06/13 08:37:43;;;;;;;6.90;4.68;;;;;;;-144.65;100.00;64500.88;5049755;28;20030;-76
2022/06/13 08:40:10;;;;;;;6.28;5.00;;;;;;;-144.65;100.00;64500.88;5049356;28;20025;-75
2022/06/13 08:42:42;;;;;;;7.55;5.38;;;;;;;-144.65;100.00;64500.88;5049838;28;20025;-75
2022/06/13 08:45:17;;;;;;;6.85;5.25;;;;;;;-144.65;100.00;64500.88;5049552;28;20036;-75
2022/06/13 08:47:46;;;;;;;7.20;5.22;;;;;;;-144.65;100.00;64500.88;5049669;28;20491;-75
2022/06/13 08:50:18;;;;;;;6.55;4.65;;;;;;;-144.65;100.00;64500.88;5049261;28;20017;-75
2022/06/13 08:52:46;;;;;;;5.68;4.85;;;;;;;-144.65;100.00;64500.88;5049478;28;20065;-74
2022/06/13 08:55:20;;;;;;;7.57;5.35;;;;;;;-144.65;100.00;64500.88;5050346;28;20013;-75
2022/06/13 08:58:10;;;;;;;7.25;4.97;;;;;;;-144.65;100.00;64500.88;5036424;28;20090;-75
2022/06/13 09:00:40;;;;;;;6.97;4.70;;;;;;;-144.65;100.00;64500.88;5054199;28;20382;-74
2022/06/13 09:03:14;;;;;;;8.20;4.93;;;;;;;-144.65;100.00;64500.88;5054015;28;20455;-75
2022/06/13 09:05:52;;;;;;;7.20;4.78;;;;;;;-144.65;100.00;64500.88;5054167;28;20499;-74
2022/06/13 09:08:20;;;;;;;9.27;5.47;;;;;;;-144.65;100.00;64500.88;5054049;28;20214;-73
2022/06/13 09:10:59;;;;;;;6.05;4.40;;;;;;;-144.65;100.00;64500.88;5054331;28;20114;-76
2022/06/13 09:13:33;;;;;;;5.00;4.40;;;;;;;-144.65;100.00;64500.88;5054059;28;20474;-74
2022/06/13 09:16:18;;;;;;;6.20;5.23;;;;;;;-144.65;100.00;64500.88;5054088;28;20021;-74
2022/06/13 09:18:55;;;;;;;8.13;5.20;;;;;;;-144.65;100.00;64500.88;5054194;28;21827;-74
2022/06/13 09:21:32;;;;;;;10.07;6.35;;;;;;;-144.65;100.00;64500.88;5035845;28;20061;-74
2022/06/13 09:24:09;;;;;;;6.85;5.65;;;;;;;-144.65;100.00;64500.88;5053631;28;20039;-75
2022/06/13 09:26:50;;;;;;;8.23;5.90;;;;;;;-144.65;100.00;64500.88;5053882;28;20503;-75
2022/06/13 09:29:26;;;;;;;8.00;6.25;;;;;;;-144.65;100.00;64500.88;5053595;28;20032;-73
2022/06/13 09:32:04;;;;;;;8.48;6.35;;;;;;;-144.65;100.00;64500.88;5054021;28;20036;-75
2022/06/13 09:34:39;;;;;;;8.57;5.85;;;;;;;-144.65;100.00;64500.88;5053531;28;20083;-74
2022/06/13 09:37:13;;;;;;;6.45;5.72;;;;;;;-144.65;100.00;64500.88;5053340;28;20433;-74
2022/06/13 09:39:39;;;;;;;6.38;5.28;;;;;;;-144.65;100.00;64500.88;5035323;28;20029;-76
2022/06/13 09:42:29;;;;;;;7.55;5.68;;;;;;;-144.65;100.00;64500.88;5053316;28;20079;-74
2022/06/13 09:44:56;;;;;;;6.28;5.50;;;;;;;-144.65;100.00;64500.88;5053530;28;20068;-76
2022/06/13 09:47:27;;;;;;;7.13;5.35;;;;;;;-144.65;100.00;64500.88;5052341;28;20029;-74
2022/06/13 09:50:00;;;;;;;6.95;5.85;;;;;;;-144.65;100.00;64500.88;5052073;28;20059;-75
2022/06/13 09:52:29;;;;;;;9.00;5.60;;;;;;;-144.65;100.00;64500.88;5053227;28;20057;-75
2022/06/13 09:55:32;;;;;;;5.45;4.80;;;;;;;-144.65;100.00;64500.88;5051928;28;20032;-74
2022/06/13 09:58:33;;;;;;;8.07;4.88;;;;;;;-144.65;100.00;64500.88;5052701;28;20033;-75
2022/06/13 10:01:12;;;;;;;8.85;4.82;;;;;;;-144.65;100.00;64500.88;5035154;28;20068;-74
2022/06/13 10:03:56;;;;;;;7.85;5.07;;;;;;;-144.65;100.00;64500.88;5053223;28;20056;-75
2022/06/13 10:06:25;;;;;;;4.78;4.00;;;;;;;-144.65;100.00;64500.88;5052352;28;20040;-76
2022/06/13 10:09:14;;;;;;;8.13;4.55;;;;;;;-144.65;100.00;64500.88;5052504;28;20029;-75
2022/06/13 10:11:57;;;;;;;5.07;4.15;;;;;;;-144.65;100.00;64500.88;5052783;28;20092;-72
2022/06/13 10:14:56;;;;;;;5.63;4.35;;;;;;;-144.65;100.00;64500.88;5052796;28;20078;-73
2022/06/13 10:17:40;;;;;;;6.82;4.07;;;;;;;-144.65;100.00;64500.88;5052615;28;20490;-73
2022/06/13 10:20:06;;;;;;;4.68;3.30;;;;;;;-144.65;100.00;64500.88;5052494;28;20096;-74
2022/06/13 10:22:56;;;;;;;5.75;3.10;;;;;;;-144.65;100.00;64500.88;5050999;28;20141;-73
2022/06/13 10:25:21;;;;;;;3.60;3.17;;;;;;;-144.65;100.00;64500.88;5052376;28;20048;-74
2022/06/13 10:28:16;;;;;;;3.80;2.95;;;;;;;-144.65;100.00;64500.88;5052462;28;20021;-73
2022/06/13 10:31:20;;;;;;;3.90;3.40;;;;;;;-144.65;100.00;64500.88;5052480;28;20025;-73
2022/06/13 10:33:59;;;;;;;3.85;3.20;;;;;;;-144.65;100.00;64500.88;5052109;28;20065;-74
2022/06/13 10:36:44;;;;;;;5.18;3.50;;;;;;;-144.65;100.00;64500.88;5052379;28;20032;-73
2022/06/13 10:39:13;;;;;;;3.88;3.47;;;;;;;-144.65;100.00;64500.88;5053114;28;20114;-73
2022/06/13 10:41:45;;;;;;;4.43;3.45;;;;;;;-144.65;100.00;64500.88;5056405;28;20021;-74
2022/06/13 10:44:14;;;;;;;8.20;3.78;;;;;;;-144.65;100.00;64500.88;5061737;28;20037;-73
2022/06/13 10:46:51;;;;;;;5.63;3.63;;;;;;;-144.65;100.00;64500.88;5057422;28;20036;-75
2022/06/13 10:49:31;;;;;;;6.18;3.95;;;;;;;-144.65;100.00;64500.88;5053349;28;20041;-73
2022/06/13 10:52:02;;;;;;;4.82;3.50;;;;;;;-144.65;100.00;64500.88;5034240;28;20028;-74
2022/06/13 10:54:50;;;;;;;5.05;4.10;;;;;;;-144.65;100.00;64500.88;5052674;28;20061;-73
2022/06/13 10:57:27;;;;;;;7.72;4.30;;;;;;;-144.65;100.00;64500.88;5052381;28;20043;-73
2022/06/13 11:00:24;;;;;;;4.20;3.80;;;;;;;-144.65;100.00;64500.88;5034747;28;20389;-73
2022/06/13 11:02:51;;;;;;;4.32;3.72;;;;;;;-144.65;100.00;64500.88;5048059;28;20406;-73
2022/06/13 11:05:16;;;;;;;5.70;3.53;;;;;;;-144.65;100.00;64500.88;5051866;28;20040;-73
2022/06/13 11:07:48;;;;;;;5.07;3.60;;;;;;;-144.65;100.00;64500.88;5050876;28;20025;-73
2022/06/13 11:10:35;;;;;;;7.28;4.00;;;;;;;-144.65;100.00;64500.88;5052236;28;20513;-74
2022/06/13 11:13:03;;;;;;;6.57;3.90;;;;;;;-144.65;100.00;64500.88;5051884;28;20028;-74
2022/06/13 11:24:48;;;;;;;3.65;3.15;;;;;;;-144.65;100.00;64500.88;5051435;28;20496;-77
2022/06/13 11:27:41;;;;;;;5.18;3.50;;;;;;;-144.65;100.00;64500.88;5051476;28;20082;-75
2022/06/13 11:30:25;;;;;;;5.20;3.90;;;;;;;-144.65;100.00;64500.88;5051441;28;20033;-74
2022/06/13 11:32:59;;;;;;;6.70;2.92;;;;;;;-144.65;100.00;64500.88;5050581;28;20028;-74
2022/06/13 11:35:54;;;;;;;3.47;2.90;;;;;;;-144.65;100.00;64500.88;5050196;28;20074;-75
2022/06/13 11:38:22;;;;;;;10.32;3.25;;;;;;;-144.65;100.00;64500.88;5050137;28;20072;-75
2022/06/13 11:41:00;;;;;;;5.55;3.03;;;;;;;-144.65;100.00;64500.88;5051396;28;20128;-74
2022/06/13 11:44:03;;;;;;;3.95;2.95;;;;;;;-144.65;100.00;64500.88;5050822;28;20033;-74
2022/06/13 11:46:41;;;;;;;3.53;3.22;;;;;;;-144.65;100.00;64500.88;5039630;28;20065;-75
2022/06/13 11:49:15;;;;;;;3.40;2.70;;;;;;;-144.65;100.00;64500.88;5051007;28;20044;-80
2022/06/13 11:51:48;;;;;;;4.00;2.90;;;;;;;-144.65;100.00;64500.88;5050236;28;20032;-78
2022/06/13 11:54:39;;;;;;;3.40;2.72;;;;;;;-144.65;100.00;64500.88;5051349;28;20021;-79
2022/06/13 11:57:19;;;;;;;3.50;3.05;;;;;;;-144.65;100.00;64500.88;5031536;28;20040;-79